26 | 01 | 2021

Daten Vortag

Klimadaten von 10m Höhe gemessen, Station 

Datum / Zeit Intervall min Luftfeuchte % Temperatur °C absolut Luftdruck hPa Wind m/s Windbö m/s Richtung Relative Luftdruck hPa Taupunkt °C Windchill °C Niederschlag mm
25-01-2021 00:10 5 89 1.1 996.7 1.1 2.5 W 998.4 -0.5 1.1 0.0
25-01-2021 00:15 5 89 1.2 996.6 0.0 2.5 W 998.3 -0.4 1.2 0.0
25-01-2021 00:20 5 89 1.2 996.7 2.5 2.5 SWW 998.4 -0.4 1.2 0.0
25-01-2021 00:25 5 89 1.3 996.6 2.5 3.6 W 998.3 -0.3 1.3 0.0
25-01-2021 00:30 5 89 1.3 996.6 5.0 6.1 W 998.3 -0.3 1.3 0.0
25-01-2021 00:35 5 89 1.3 996.6 1.1 2.5 W 998.3 -0.3 1.3 0.0
25-01-2021 00:40 5 89 1.3 996.7 2.5 5.0 W 998.4 -0.3 1.3 0.0
25-01-2021 00:45 5 89 1.3 996.5 2.5 3.6 W 998.2 -0.3 1.3 0.0
25-01-2021 00:50 5 89 1.3 996.6 1.1 3.6 W 998.3 -0.3 1.3 0.0
25-01-2021 00:55 5 89 1.3 996.7 1.1 2.5 W 998.4 -0.3 1.3 0.0
25-01-2021 01:00 5 89 1.3 996.5 1.1 2.5 W 998.2 -0.3 1.3 0.0
25-01-2021 01:05 5 89 1.3 996.7 1.1 3.6 W 998.4 -0.3 1.3 0.0
25-01-2021 01:10 5 89 1.3 996.6 0.0 1.1 W 998.3 -0.3 1.3 0.3
25-01-2021 01:15 5 89 1.3 996.6 1.1 2.5 W 998.3 -0.3 1.3 0.3
25-01-2021 01:20 5 89 1.3 996.3 2.5 5.0 W 998.0 -0.3 1.3 0.3
25-01-2021 01:25 5 89 1.3 996.6 5.0 5.0 W 998.3 -0.3 1.3 0.3
25-01-2021 01:30 5 89 1.3 996.4 2.5 2.5 W 998.1 -0.3 1.3 0.3
25-01-2021 01:35 5 89 1.3 996.3 1.1 2.5 W 998.0 -0.3 1.3 0.3
25-01-2021 01:40 5 89 1.3 996.4 1.1 2.5 SW 998.1 -0.3 1.3 0.3
25-01-2021 01:45 5 89 1.3 996.4 1.1 2.5 W 998.1 -0.3 1.3 0.3
25-01-2021 01:50 5 89 1.3 996.6 1.1 2.5 SW 998.3 -0.3 1.3 0.3
25-01-2021 01:55 5 89 1.3 996.6 1.1 2.5 SW 998.3 -0.3 1.3 0.3
25-01-2021 02:00 5 89 1.3 996.6 1.1 3.6 SW 998.3 -0.3 1.3 0.3
25-01-2021 02:05 5 89 1.3 996.9 2.5 3.6 SW 998.6 -0.3 1.3 0.3
25-01-2021 02:10 5 89 1.3 996.5 2.5 5.0 S 998.2 -0.3 1.3 0.0
25-01-2021 02:15 5 89 1.3 996.7 3.6 5.0 W 998.4 -0.3 1.3 0.0
25-01-2021 02:20 5 89 1.4 996.8 5.0 6.1 S 998.5 -0.2 1.4 0.0
25-01-2021 02:25 5 89 1.4 996.9 2.5 3.6 SWW 998.6 -0.2 1.4 0.0
25-01-2021 02:30 5 89 1.4 996.7 2.5 5.0 SW 998.4 -0.2 1.4 0.0
25-01-2021 02:35 5 89 1.4 996.7 5.0 6.1 SWW 998.4 -0.2 1.4 0.0
25-01-2021 02:40 5 89 1.4 996.8 5.0 6.1 SSW 998.5 -0.2 1.4 0.0
25-01-2021 02:45 5 89 1.4 996.7 2.5 5.0 SW 998.4 -0.2 1.4 0.0
25-01-2021 02:50 5 89 1.4 997.0 3.6 6.1 W 998.7 -0.2 1.4 0.0
25-01-2021 02:55 5 89 1.4 996.9 3.6 6.1 SW 998.6 -0.2 1.4 0.0
25-01-2021 03:00 5 89 1.5 996.9 3.6 6.1 W 998.6 -0.1 1.5 0.0
25-01-2021 03:05 5 89 1.5 997.0 2.5 3.6 W 998.7 -0.1 1.5 0.3
25-01-2021 03:10 5 89 1.5 996.9 2.5 3.6 W 998.6 -0.1 1.5 0.3
25-01-2021 03:15 5 89 1.5 996.7 1.1 2.5 SW 998.4 -0.1 1.5 0.3
25-01-2021 03:20 5 89 1.5 997.1 1.1 2.5 SW 998.8 -0.1 1.5 0.3
25-01-2021 03:25 5 89 1.5 997.0 1.1 3.6 SW 998.7 -0.1 1.5 0.3
25-01-2021 03:30 5 89 1.5 997.2 0.0 0.0 W 998.9 -0.1 1.5 0.3
25-01-2021 03:35 5 89 1.5 996.9 3.6 5.0 SSW 998.6 -0.1 1.5 0.3
25-01-2021 03:40 5 89 1.5 996.9 2.5 3.6 S 998.6 -0.1 1.5 0.3
25-01-2021 03:45 5 89 1.5 996.9 3.6 5.0 SW 998.6 -0.1 1.5 0.3
25-01-2021 03:50 5 89 1.6 997.2 3.6 5.0 SW 998.9 0.0 1.6 0.3
25-01-2021 03:55 5 89 1.5 997.0 2.5 5.0 SW 998.7 -0.1 1.5 0.3
25-01-2021 04:00 5 89 1.6 997.2 3.6 5.0 SW 998.9 0.0 1.6 0.3
25-01-2021 04:05 5 89 1.6 997.0 2.5 3.6 SW 998.7 0.0 1.6 0.0
25-01-2021 04:10 5 89 1.6 997.3 1.1 2.5 SW 999.0 0.0 1.6 0.0
25-01-2021 04:15 5 89 1.6 997.3 2.5 3.6 S 999.0 0.0 1.6 0.0
25-01-2021 04:20 5 89 1.6 997.2 2.5 3.6 SWW 998.9 0.0 1.6 0.0
25-01-2021 04:25 5 89 1.6 997.1 2.5 3.6 W 998.8 0.0 1.6 0.0
25-01-2021 04:30 5 89 1.6 997.1 3.6 5.0 W 998.8 0.0 1.6 0.0
25-01-2021 04:35 5 89 1.6 997.3 2.5 3.6 SW 999.0 0.0 1.6 0.0
25-01-2021 04:40 5 89 1.6 997.3 3.6 5.0 W 999.0 0.0 1.6 0.0
25-01-2021 04:45 5 89 1.6 997.4 1.1 3.6 W 999.1 0.0 1.6 0.0
25-01-2021 04:50 5 89 1.6 997.3 2.5 3.6 S 999.0 0.0 1.6 0.0
25-01-2021 04:55 5 89 1.6 997.2 2.5 5.0 W 998.9 0.0 1.6 0.0
25-01-2021 05:00 5 89 1.6 997.4 2.5 3.6 W 999.1 0.0 1.6 0.0
25-01-2021 05:05 5 89 1.6 997.3 3.6 6.1 W 999.0 0.0 1.6 0.0
25-01-2021 05:10 5 89 1.6 997.4 5.0 6.1 W 999.1 0.0 1.6 0.0
25-01-2021 05:15 5 89 1.6 997.3 2.5 3.6 W 999.0 0.0 1.6 0.0
25-01-2021 05:20 5 89 1.5 997.2 2.5 3.6 W 998.9 -0.1 1.5 0.0
25-01-2021 05:25 5 89 1.5 997.4 2.5 2.5 W 999.1 -0.1 1.5 0.0
25-01-2021 05:30 5 89 1.5 997.2 1.1 2.5 W 998.9 -0.1 1.5 0.0
25-01-2021 05:35 5 89 1.4 997.3 1.1 2.5 SW 999.0 -0.2 1.4 0.0
25-01-2021 05:40 5 89 1.3 997.4 2.5 3.6 SW 999.1 -0.3 1.3 0.0
25-01-2021 05:45 5 89 1.2 997.4 1.1 2.5 SW 999.1 -0.4 1.2 0.0
25-01-2021 05:50 5 88 1.1 997.4 0.0 1.1 SW 999.1 -0.7 1.1 0.0
25-01-2021 05:55 5 88 1.0 997.6 0.0 1.1 SW 999.3 -0.8 1.0 0.0
25-01-2021 06:00 5 88 0.9 997.6 2.5 3.6 W 999.3 -0.9 0.9 0.0
25-01-2021 06:05 5 88 1.0 997.4 7.2 8.6 W 999.1 -0.8 -0.6 0.0
25-01-2021 06:10 5 88 1.1 997.5 2.5 5.0 W 999.2 -0.7 1.1 0.0
25-01-2021 06:15 5 88 1.1 997.6 5.0 7.2 W 999.3 -0.7 1.1 0.0
25-01-2021 06:20 5 88 1.1 997.5 5.0 6.1 W 999.2 -0.7 1.1 0.0
25-01-2021 06:25 5 88 1.2 997.5 5.0 6.1 W 999.2 -0.6 1.2 0.0
25-01-2021 06:30 5 88 1.2 997.4 3.6 5.0 W 999.1 -0.6 1.2 0.0
25-01-2021 06:35 5 88 1.2 997.5 5.0 6.1 W 999.2 -0.6 1.2 0.0
25-01-2021 06:40 5 88 1.2 997.6 5.0 7.2 SW 999.3 -0.6 1.2 0.0
25-01-2021 06:45 5 88 1.2 997.6 6.1 7.2 SW 999.3 -0.6 1.2 0.0
25-01-2021 06:50 5 88 1.1 997.5 5.0 6.1 SW 999.2 -0.7 1.1 0.0
25-01-2021 06:55 5 88 1.1 997.7 3.6 5.0 SW 999.4 -0.7 1.1 0.0
25-01-2021 07:00 5 88 1.0 997.8 1.1 2.5 SW 999.5 -0.8 1.0 0.0
25-01-2021 07:05 5 88 0.9 997.7 0.0 1.1 SW 999.4 -0.9 0.9 0.0
25-01-2021 07:10 5 87 0.7 997.7 1.1 2.5 SW 999.4 -1.2 0.7 0.0
25-01-2021 07:15 5 87 0.7 997.5 1.1 2.5 SW 999.2 -1.2 0.7 0.0
25-01-2021 07:20 5 87 0.7 997.7 1.1 2.5 SW 999.4 -1.2 0.7 0.0
25-01-2021 07:25 5 87 0.6 997.6 2.5 2.5 SW 999.3 -1.3 0.6 0.0
25-01-2021 07:30 5 87 0.6 997.8 0.0 1.1 SW 999.5 -1.3 0.6 0.0
25-01-2021 07:35 5 87 0.5 998.0 0.0 1.1 SW 999.7 -1.4 0.5 0.0
25-01-2021 07:40 5 87 0.3 998.2 0.0 0.0 SW 999.9 -1.6 0.3 0.0
25-01-2021 07:45 5 87 0.2 998.1 0.0 1.1 SW 999.8 -1.7 0.2 0.0
25-01-2021 07:50 5 87 0.2 998.1 1.1 2.5 SW 999.8 -1.7 0.2 0.0
25-01-2021 07:55 5 87 0.3 998.0 1.1 2.5 SW 999.7 -1.6 0.3 0.0
25-01-2021 08:00 5 87 0.4 998.0 3.6 5.0 SW 999.7 -1.5 0.4 0.0
25-01-2021 08:05 5 87 0.4 998.0 2.5 3.6 SW 999.7 -1.5 0.4 0.0
25-01-2021 08:10 5 87 0.4 998.2 1.1 2.5 SW 999.9 -1.5 0.4 0.0
25-01-2021 08:15 5 87 0.5 998.4 3.6 5.0 SW 1000.1 -1.4 0.5 0.0
25-01-2021 08:20 5 87 0.5 998.2 1.1 3.6 SW 999.9 -1.4 0.5 0.0
25-01-2021 08:25 5 87 0.4 998.3 2.5 2.5 SW 1000.0 -1.5 0.4 0.0
25-01-2021 08:30 5 87 0.6 998.5 3.6 5.0 SW 1000.2 -1.3 0.6 0.0
25-01-2021 08:35 5 87 0.6 998.6 1.1 2.5 SW 1000.3 -1.3 0.6 0.0
25-01-2021 08:40 5 87 0.7 998.3 6.1 8.6 SW 1000.0 -1.2 0.7 0.0
25-01-2021 08:45 5 88 0.9 998.7 6.1 8.6 SW 1000.4 -0.9 0.9 0.0
25-01-2021 08:50 5 88 1.1 998.6 6.1 7.2 SW 1000.3 -0.7 1.1 0.0
25-01-2021 08:55 5 88 1.2 998.5 7.2 8.6 W 1000.2 -0.6 -0.4 0.0
25-01-2021 09:00 5 88 1.5 998.6 5.0 8.6 W 1000.3 -0.3 1.5 0.0
25-01-2021 09:05 5 88 1.5 998.6 5.0 7.2 W 1000.3 -0.3 1.5 0.0
25-01-2021 09:10 5 88 1.8 998.9 5.0 7.2 W 1000.6 0.0 1.8 0.0
25-01-2021 09:15 5 88 1.9 998.9 5.0 6.1 W 1000.6 0.1 1.9 0.0
25-01-2021 09:20 5 88 2.0 999.0 5.0 6.1 W 1000.7 0.2 2.0 0.0
25-01-2021 09:25 5 88 2.2 998.8 2.5 3.6 W 1000.5 0.4 2.2 0.0
25-01-2021 09:30 5 87 2.1 998.9 3.6 6.1 W 1000.6 0.2 2.1 0.0
25-01-2021 09:35 5 87 2.0 998.9 5.0 6.1 W 1000.6 0.1 2.0 0.0
25-01-2021 09:40 5 86 1.8 999.0 5.0 6.1 W 1000.7 -0.3 1.8 0.0
25-01-2021 09:45 5 86 1.7 999.2 2.5 3.6 W 1000.9 -0.4 1.7 0.0
25-01-2021 09:50 5 86 1.6 999.1 5.0 7.2 W 1000.8 -0.5 1.6 0.0
25-01-2021 09:55 5 86 1.6 998.9 5.0 6.1 NWW 1000.6 -0.5 1.6 0.0
25-01-2021 10:00 5 86 1.6 999.3 3.6 5.0 W 1001.0 -0.5 1.6 0.0
25-01-2021 10:05 5 86 1.6 999.3 3.6 5.0 W 1001.0 -0.5 1.6 0.0
25-01-2021 10:10 5 86 1.6 999.3 3.6 5.0 W 1001.0 -0.5 1.6 0.0
25-01-2021 10:15 5 86 1.7 999.4 3.6 5.0 W 1001.1 -0.4 1.7 0.0
25-01-2021 10:20 5 86 1.7 999.4 5.0 6.1 W 1001.1 -0.4 1.7 0.0
25-01-2021 10:25 5 86 1.8 999.5 5.0 6.1 W 1001.2 -0.3 1.8 0.0
25-01-2021 10:30 5 87 1.9 999.5 2.5 3.6 W 1001.2 0.0 1.9 0.0
25-01-2021 10:35 5 87 1.9 999.3 7.2 9.7 W 1001.0 0.0 0.4 0.0
25-01-2021 10:40 5 87 2.0 999.6 3.6 5.0 W 1001.3 0.1 2.0 0.0
25-01-2021 10:45 5 87 2.0 999.7 3.6 5.0 W 1001.4 0.1 2.0 0.0
25-01-2021 10:50 5 87 2.0 999.8 5.0 7.2 W 1001.5 0.1 2.0 0.0
25-01-2021 10:55 5 87 2.1 999.7 5.0 6.1 SW 1001.4 0.2 2.1 0.0
25-01-2021 11:00 5 87 2.1 999.9 5.0 7.2 SW 1001.6 0.2 2.1 0.0
25-01-2021 11:05 5 87 2.1 999.8 3.6 5.0 W 1001.5 0.2 2.1 0.0
25-01-2021 11:10 5 87 2.1 1000.0 5.0 7.2 W 1001.7 0.2 2.1 0.0
25-01-2021 11:15 5 87 2.2 1000.1 5.0 6.1 SW 1001.8 0.3 2.2 0.0
25-01-2021 11:20 5 87 2.3 1000.0 6.1 8.6 W 1001.7 0.4 2.3 0.0
25-01-2021 11:25 5 86 2.3 1000.0 5.0 6.1 W 1001.7 0.2 2.3 0.0
25-01-2021 11:30 5 86 2.4 1000.1 5.0 6.1 W 1001.8 0.3 2.4 0.0
25-01-2021 11:35 5 86 2.5 1000.1 3.6 5.0 W 1001.8 0.4 2.5 0.0
25-01-2021 11:40 5 86 2.6 1000.3 6.1 8.6 W 1002.0 0.5 2.6 0.0
25-01-2021 11:45 5 86 2.7 1000.3 5.0 7.2 W 1002.0 0.6 2.7 0.0
25-01-2021 11:50 5 86 2.7 1000.3 6.1 7.2 W 1002.0 0.6 2.7 0.0
25-01-2021 11:55 5 85 2.7 1000.3 6.1 7.2 W 1002.0 0.4 2.7 0.0
25-01-2021 12:00 5 85 2.8 1000.4 5.0 6.1 W 1002.1 0.5 2.8 0.0
25-01-2021 12:05 5 85 2.8 1000.3 7.2 11.2 W 1002.0 0.5 1.3 0.0
25-01-2021 12:10 5 85 2.8 1000.3 7.2 11.2 W 1002.0 0.5 1.3 0.0
25-01-2021 12:15 5 83 2.9 1000.6 5.0 6.1 W 1002.3 0.3 2.9 0.0
25-01-2021 12:20 5 83 2.9 1000.7 5.0 6.1 W 1002.4 0.3 2.9 0.0
25-01-2021 12:25 5 83 2.9 1000.4 5.0 7.2 W 1002.1 0.3 2.9 0.3
25-01-2021 12:30 5 83 2.8 1000.7 5.0 6.1 W 1002.4 0.2 2.8 0.3
25-01-2021 12:35 5 83 2.8 1000.6 5.0 6.1 W 1002.3 0.2 2.8 0.3
25-01-2021 12:39 5 83 2.8 1000.7 5.0 8.6 NWW 1002.4 0.2 2.8 0.3
25-01-2021 12:44 5 83 2.7 1000.6 6.1 8.6 W 1002.3 0.1 2.7 0.3
25-01-2021 12:49 5 83 2.7 1000.8 6.1 8.6 W 1002.5 0.1 2.7 0.3
25-01-2021 12:54 5 83 2.7 1000.6 5.0 7.2 NW 1002.3 0.1 2.7 0.3
25-01-2021 12:59 5 83 2.8 1000.8 5.0 7.2 NW 1002.5 0.2 2.8 0.3
25-01-2021 13:04 5 82 2.8 1000.8 8.6 9.7 W 1002.5 0.0 0.2 0.3
25-01-2021 13:09 5 82 2.8 1000.7 6.1 7.2 W 1002.4 0.0 2.8 0.3
25-01-2021 13:14 5 82 2.9 1000.9 7.2 9.7 W 1002.6 0.1 1.4 0.3
25-01-2021 13:19 5 82 2.9 1000.9 8.6 14.8 W 1002.6 0.1 0.3 0.3
25-01-2021 13:24 5 82 2.9 1000.8 9.7 11.2 W 1002.5 0.1 -0.5 0.3
25-01-2021 13:29 5 82 2.9 1001.1 9.7 12.2 W 1002.8 0.1 -0.5 0.0
25-01-2021 13:34 5 81 2.9 1001.1 8.6 11.2 W 1002.8 0.0 0.3 0.0
25-01-2021 13:39 5 81 2.9 1000.9 8.6 12.2 W 1002.6 0.0 0.3 0.0
25-01-2021 13:44 5 81 2.9 1000.9 7.2 9.7 W 1002.6 0.0 1.4 0.0
25-01-2021 13:49 5 81 2.9 1001.1 9.7 13.3 W 1002.8 0.0 -0.5 0.0
25-01-2021 13:54 5 81 2.9 1001.2 6.1 8.6 W 1002.9 0.0 2.9 0.0
25-01-2021 13:59 5 81 2.8 1001.1 7.2 8.6 W 1002.8 -0.1 1.3 0.0
25-01-2021 14:04 5 81 2.8 1001.2 9.7 12.2 W 1002.9 -0.1 -0.6 0.0
25-01-2021 14:09 5 81 2.8 1001.2 7.2 13.3 W 1002.9 -0.1 1.3 0.0
25-01-2021 14:14 5 81 2.8 1001.0 6.1 7.2 W 1002.7 -0.1 2.8 0.0
25-01-2021 14:19 5 82 2.8 1001.4 5.0 8.6 W 1003.1 0.0 2.8 0.0
25-01-2021 14:24 5 82 2.9 1001.1 7.2 9.7 NWW 1002.8 0.1 1.4 0.0
25-01-2021 14:29 5 82 2.9 1001.3 3.6 5.0 SW 1003.0 0.1 2.9 0.0
25-01-2021 14:34 5 82 2.9 1001.1 7.2 8.6 W 1002.8 0.1 1.4 0.0
25-01-2021 14:39 5 82 2.9 1001.4 6.1 7.2 W 1003.1 0.1 2.9 0.0
25-01-2021 14:44 5 82 2.9 1001.4 7.2 8.6 W 1003.1 0.1 1.4 0.0
25-01-2021 14:49 5 82 2.9 1001.4 9.7 11.2 W 1003.1 0.1 -0.5 0.0
25-01-2021 14:54 5 82 2.9 1001.3 8.6 11.2 W 1003.0 0.1 0.3 0.0
25-01-2021 14:59 5 82 3.0 1001.6 6.1 8.6 W 1003.3 0.2 3.0 0.0
25-01-2021 15:04 5 82 3.0 1001.7 9.7 11.2 W 1003.4 0.2 -0.4 0.0
25-01-2021 15:09 5 82 2.9 1001.5 11.2 14.8 W 1003.2 0.1 -1.4 0.0
25-01-2021 15:14 5 82 2.8 1001.7 11.2 13.3 W 1003.4 0.0 -1.5 0.0
25-01-2021 15:19 5 82 2.8 1001.8 6.1 9.7 W 1003.5 0.0 2.8 0.0
25-01-2021 15:24 5 82 2.8 1001.7 6.1 9.7 NW 1003.4 0.0 2.8 0.0
25-01-2021 15:29 5 82 2.8 1001.9 7.2 9.7 W 1003.6 0.0 1.3 0.0
25-01-2021 15:34 5 82 2.8 1002.0 12.2 14.8 W 1003.7 0.0 -2.2 0.0
25-01-2021 15:39 5 81 2.8 1001.9 11.2 13.3 W 1003.6 -0.1 -1.5 0.0
25-01-2021 15:44 5 81 2.7 1002.1 13.3 17.3 W 1003.8 -0.2 -2.9 0.0
25-01-2021 15:49 5 80 2.7 1002.1 9.7 15.8 W 1003.8 -0.4 -0.7 0.0
25-01-2021 15:54 5 80 2.6 1002.0 11.2 13.3 W 1003.7 -0.5 -1.8 0.0
25-01-2021 15:59 5 80 2.6 1002.0 11.2 13.3 W 1003.7 -0.5 -1.8 0.0
25-01-2021 16:04 5 80 2.6 1002.0 9.7 11.2 W 1003.7 -0.5 -0.8 0.0
25-01-2021 16:09 5 80 2.6 1002.4 8.6 12.2 W 1004.1 -0.5 0.0 0.0
25-01-2021 16:14 5 80 2.6 1002.1 7.2 8.6 W 1003.8 -0.5 1.1 0.0
25-01-2021 16:19 5 80 2.5 1002.3 6.1 7.2 SW 1004.0 -0.6 2.5 0.0
25-01-2021 16:24 5 80 2.4 1002.5 7.2 9.7 SWW 1004.2 -0.7 0.9 0.0
25-01-2021 16:29 5 80 2.4 1002.4 7.2 8.6 W 1004.1 -0.7 0.9 0.0
25-01-2021 16:34 5 81 2.3 1002.6 6.1 7.2 W 1004.3 -0.6 2.3 0.0
25-01-2021 16:39 5 81 2.3 1002.6 7.2 8.6 SWW 1004.3 -0.6 0.8 0.0
25-01-2021 16:44 5 81 2.2 1002.5 6.1 8.6 SW 1004.2 -0.7 2.2 0.0
25-01-2021 16:49 5 81 2.2 1002.5 7.2 11.2 W 1004.2 -0.7 0.7 0.0
25-01-2021 16:54 5 81 2.2 1002.6 5.0 7.2 W 1004.3 -0.7 2.2 0.0
25-01-2021 16:59 5 81 2.1 1002.9 6.1 7.2 W 1004.6 -0.8 2.1 0.0
25-01-2021 17:04 5 81 2.0 1002.8 8.6 11.2 W 1004.5 -0.9 -0.7 0.0
25-01-2021 17:09 5 81 2.0 1002.9 7.2 9.7 W 1004.6 -0.9 0.5 0.0
25-01-2021 17:14 5 81 2.0 1003.0 5.0 7.2 W 1004.7 -0.9 2.0 0.0
25-01-2021 17:19 5 81 1.9 1002.9 6.1 8.6 W 1004.6 -1.0 1.9 0.0
25-01-2021 17:24 5 81 1.8 1003.0 6.1 8.6 W 1004.7 -1.1 1.8 0.0
25-01-2021 17:29 5 81 1.8 1003.0 5.0 7.2 W 1004.7 -1.1 1.8 0.0
25-01-2021 17:34 5 81 1.8 1002.9 6.1 9.7 W 1004.6 -1.1 1.8 0.0
25-01-2021 17:39 5 81 1.9 1003.1 6.1 9.7 W 1004.8 -1.0 1.9 0.0
25-01-2021 17:44 5 81 2.0 1003.1 6.1 8.6 W 1004.8 -0.9 2.0 0.0
25-01-2021 17:49 5 81 2.0 1002.9 6.1 8.6 SWW 1004.6 -0.9 2.0 0.0
25-01-2021 17:54 5 81 2.0 1003.2 5.0 7.2 W 1004.9 -0.9 2.0 0.0
25-01-2021 17:59 5 81 1.9 1003.0 6.1 8.6 SSW 1004.7 -1.0 1.9 0.0
25-01-2021 18:04 5 81 1.9 1003.0 3.6 6.1 SW 1004.7 -1.0 1.9 0.0
25-01-2021 18:09 5 81 1.9 1003.1 5.0 7.2 SW 1004.8 -1.0 1.9 0.0
25-01-2021 18:14 5 81 1.8 1003.4 7.2 8.6 SWW 1005.1 -1.1 0.3 0.0
25-01-2021 18:19 5 81 1.8 1003.3 6.1 7.2 SW 1005.0 -1.1 1.8 0.0
25-01-2021 18:24 5 81 1.9 1003.1 6.1 7.2 SW 1004.8 -1.0 1.9 0.0
25-01-2021 18:29 5 81 1.9 1003.4 6.1 9.7 SWW 1005.1 -1.0 1.9 0.0
25-01-2021 18:34 5 81 1.8 1003.5 7.2 9.7 SSW 1005.2 -1.1 0.3 0.0
25-01-2021 18:39 5 82 1.8 1003.5 7.2 8.6 W 1005.2 -0.9 0.3 0.0
25-01-2021 18:44 5 82 1.9 1003.5 6.1 8.6 W 1005.2 -0.8 1.9 0.0
25-01-2021 18:49 5 81 1.9 1003.6 7.2 9.7 W 1005.3 -1.0 0.4 0.0
25-01-2021 18:54 5 81 1.8 1003.6 5.0 6.1 W 1005.3 -1.1 1.8 0.0
25-01-2021 18:59 5 81 1.7 1003.6 6.1 7.2 W 1005.3 -1.2 1.7 0.0
25-01-2021 19:04 5 81 1.7 1003.8 8.6 9.7 SW 1005.5 -1.2 -1.0 0.0
25-01-2021 19:09 5 82 1.7 1003.6 8.6 11.2 SW 1005.3 -1.0 -1.0 0.0
25-01-2021 19:14 5 82 1.7 1003.7 6.1 8.6 SWW 1005.4 -1.0 1.7 0.0
25-01-2021 19:19 5 82 1.7 1003.6 6.1 8.6 W 1005.3 -1.0 1.7 0.0
25-01-2021 19:24 5 82 1.7 1003.8 6.1 9.7 NW 1005.5 -1.0 1.7 0.0
25-01-2021 19:29 5 82 1.8 1003.9 6.1 9.7 W 1005.6 -0.9 1.8 0.0
25-01-2021 19:34 5 82 1.8 1004.0 11.2 13.3 W 1005.7 -0.9 -2.7 0.0
25-01-2021 19:39 5 82 1.9 1003.8 9.7 13.3 W 1005.5 -0.8 -1.6 0.0
25-01-2021 19:44 5 82 1.9 1004.1 7.2 11.2 W 1005.8 -0.8 0.4 0.0
25-01-2021 19:49 5 82 1.9 1004.0 6.1 8.6 W 1005.7 -0.8 1.9 0.0
25-01-2021 19:54 5 82 1.8 1004.1 7.2 9.7 W 1005.8 -0.9 0.3 0.0
25-01-2021 19:59 5 82 1.7 1004.0 5.0 7.2 W 1005.7 -1.0 1.7 0.0
25-01-2021 20:04 5 82 1.7 1004.0 5.0 6.1 W 1005.7 -1.0 1.7 0.0
25-01-2021 20:09 5 82 1.7 1004.1 7.2 8.6 W 1005.8 -1.0 0.2 0.0
25-01-2021 20:14 5 82 1.6 1004.2 5.0 7.2 W 1005.9 -1.1 1.6 0.0
25-01-2021 20:19 5 82 1.6 1004.3 5.0 6.1 W 1006.0 -1.1 1.6 0.0
25-01-2021 20:24 5 83 1.6 1004.1 7.2 9.7 W 1005.8 -1.0 0.1 0.0
25-01-2021 20:29 5 83 1.6 1004.3 5.0 7.2 W 1006.0 -1.0 1.6 0.0
25-01-2021 20:34 5 83 1.6 1004.1 5.0 7.2 SW 1005.8 -1.0 1.6 0.0
25-01-2021 20:39 5 83 1.6 1004.4 5.0 7.2 W 1006.1 -1.0 1.6 0.0
25-01-2021 20:44 5 83 1.6 1004.3 6.1 7.2 W 1006.0 -1.0 1.6 0.0
25-01-2021 20:49 5 83 1.7 1004.5 8.6 11.2 SW 1006.2 -0.9 -1.0 0.0
25-01-2021 20:54 5 83 1.7 1004.5 7.2 9.7 W 1006.2 -0.9 0.2 0.0
25-01-2021 20:59 5 83 1.7 1004.4 6.1 7.2 W 1006.1 -0.9 1.7 0.0
25-01-2021 21:04 5 83 1.7 1004.3 7.2 8.6 W 1006.0 -0.9 0.2 0.0
25-01-2021 21:09 5 83 1.7 1004.6 8.6 11.2 W 1006.3 -0.9 -1.0 0.0
25-01-2021 21:14 5 83 1.8 1004.6 12.2 14.8 W 1006.3 -0.8 -3.3 0.0
25-01-2021 21:19 5 83 1.8 1004.8 9.7 12.2 W 1006.5 -0.8 -1.7 0.0
25-01-2021 21:24 5 83 1.8 1004.5 8.6 13.3 SWW 1006.2 -0.8 -0.9 0.0
25-01-2021 21:29 5 83 1.7 1004.8 6.1 8.6 W 1006.5 -0.9 1.7 0.0
25-01-2021 21:34 5 83 1.7 1004.7 6.1 8.6 W 1006.4 -0.9 1.7 0.0
25-01-2021 21:39 5 83 1.7 1004.8 7.2 11.2 W 1006.5 -0.9 0.2 0.0
25-01-2021 21:44 5 83 1.7 1004.9 8.6 12.2 W 1006.6 -0.9 -1.0 0.0
25-01-2021 21:49 5 83 1.7 1004.9 8.6 13.3 W 1006.6 -0.9 -1.0 0.0
25-01-2021 21:54 5 83 1.7 1004.9 9.7 12.2 SWW 1006.6 -0.9 -1.8 0.0
25-01-2021 21:59 5 83 1.6 1004.9 8.6 11.2 W 1006.6 -1.0 -1.1 0.0
25-01-2021 22:04 5 83 1.6 1004.8 8.6 11.2 W 1006.5 -1.0 -1.1 0.0
25-01-2021 22:09 5 83 1.5 1005.0 5.0 7.2 W 1006.7 -1.1 1.5 0.0
25-01-2021 22:14 5 83 1.5 1005.1 6.1 8.6 W 1006.8 -1.1 1.5 0.0
25-01-2021 22:19 5 83 1.4 1005.1 8.6 11.2 W 1006.8 -1.2 -1.4 0.0
25-01-2021 22:24 5 83 1.4 1005.1 5.0 7.2 W 1006.8 -1.2 1.4 0.0
25-01-2021 22:29 5 83 1.3 1005.3 6.1 7.2 W 1007.0 -1.3 1.3 0.0
25-01-2021 22:34 5 83 1.3 1005.3 7.2 9.7 W 1007.0 -1.3 -0.3 0.0
25-01-2021 22:39 5 83 1.2 1005.2 3.6 6.1 W 1006.9 -1.4 1.2 0.0
25-01-2021 22:44 5 83 1.2 1005.2 5.0 7.2 W 1006.9 -1.4 1.2 0.0
25-01-2021 22:49 5 83 1.3 1005.1 7.2 9.7 W 1006.8 -1.3 -0.3 0.0
25-01-2021 22:54 5 83 1.2 1004.9 7.2 11.2 SW 1006.6 -1.4 -0.4 0.0
25-01-2021 22:59 5 83 1.2 1005.2 6.1 7.2 W 1006.9 -1.4 1.2 0.0
25-01-2021 23:04 5 83 1.2 1005.4 7.2 9.7 W 1007.1 -1.4 -0.4 0.0
25-01-2021 23:09 5 83 1.2 1005.4 8.6 9.7 W 1007.1 -1.4 -1.6 0.0
25-01-2021 23:14 5 83 1.1 1005.2 6.1 8.6 W 1006.9 -1.5 1.1 0.0
25-01-2021 23:19 5 83 1.2 1005.3 8.6 11.2 W 1007.0 -1.4 -1.6 0.0
25-01-2021 23:24 5 83 1.1 1005.3 7.2 9.7 W 1007.0 -1.5 -0.5 0.0
25-01-2021 23:29 5 83 1.1 1005.3 7.2 8.6 W 1007.0 -1.5 -0.5 0.0
25-01-2021 23:34 5 83 1.1 1005.3 8.6 9.7 W 1007.0 -1.5 -1.7 0.0
25-01-2021 23:39 5 83 1.0 1005.0 7.2 9.7 W 1006.7 -1.6 -0.6 0.0
25-01-2021 23:44 5 83 1.0 1005.3 6.1 8.6 W 1007.0 -1.6 1.0 0.0
25-01-2021 23:49 5 83 1.0 1005.2 5.0 7.2 W 1006.9 -1.6 1.0 0.0
25-01-2021 23:54 5 84 1.0 1005.4 6.1 8.6 SWW 1007.1 -1.4 1.0 0.0
25-01-2021 23:59 5 84 1.0 1005.4 7.2 8.6 W 1007.1 -1.4 -0.6 0.0

 

  Tagesdaten                                                                         Tabelle: 07 UHR

STATIONHÖHELUFTD.TEMP.T-MinT-MaxU%RR1RR12SSSDDFFFXWetter+WolkenBöen
UFS TW Ems 0 ------ --- --- --- --- ---- --- --- -- --- --- --- ---
UFS Deutsche Bucht 0 ------ --- --- --- --- ---- --- --- -- --- --- --- ---
Helgoland 4 999.6 2.7 1.7 3.2 82 0.0 0 0 NW 21 25 --- ---
List/Sylt 26 998.8 2.2 1.6 2.8 87 0.0 0 0 -- --- ---   ---
Schleswig 43 998.9 -0.6 -0.6 1.7 99 0.0 2 0 W 9 14 wolkenlos ---
Leuchtturm Kiel 5 998.7 1.0 0.9 2.1 95 ---- --- --- W 22 31 --- ---
Kiel 27 998.8 0.6 0.4 1.8 100 0.0 0 0 W 11 17 Nebel ---
Fehmarn 3 998.5 2.5 1.8 2.7 91 0.0 0 0 W 23 27 leichter Regen ---
Arkona 42 998.0 0.4 -0.1 1.0 98 0.0 1 0 SW 21 26 Nebel ---
Norderney 11 1000.3 2.6 0.8 3.0 83 0.0 3 1 W 17 23 wolkenlos ---
Leuchtt. Alte Weser 32 999.6 2.8 0.5 3.5 92 ---- --- --- W 25 --- --- ---
Cuxhaven 5 999.6 0.6 0.5 2.2 98 0.0 2 0 SW 10 21 Dunst oder flacher Nebel ---
Hamburg-Flh. 11 999.8 0.8 0.7 2.4 96 0.0 0 0 W 9 15 Dunst oder flacher Nebel ---
Schwerin 59 999.2 0.5 0.2 0.9 98 0.0 3 0 SW 12 17 leichter Regen ---
Rostock 4 998.7 1.0 0.7 1.3 94 0.0 0 0 SW 9 16 Dunst oder flacher Nebel ---
Greifswald 2 998.7 0.8 0.4 0.9 95 0.0 0 0 SW 12 19 Schneegriesel ---
Emden 0 1000.6 -2.0 -3.3 0.2 97 0.0 0 0 SW 8 16 Dunst oder flacher Nebel ---
Bremen-Flh. 5 1000.5 -2.2 -4.5 -0.3 99 0.0 0 0 W 4 7 Dunst oder flacher Nebel ---
Lüchow 17 1000.2 1.0 0.2 2.1 89 0.0 0 0 W 10 19 --- ---
Marnitz 81 999.5 0.3 0.1 1.4 96 0.0 1 0 W 11 23 Schneegriesel ---
Waren 70 999.2 0.5 0.0 0.9 94 0.0 0 0 W 6 18 --- ---
Neuruppin 38 1000.0 0.2 0.0 1.0 98 0.0 2 1 SW 6 11 --- ---
Angermünde 56 999.8 0.3 0.2 1.0 95 0.0 2 1 SW 9 18 --- ---
Münster/Osnabr.-Flh. 48 1000.9 -1.9 -2.7 2.5 98 0.0 0 0 - 0 5 Dunst oder flacher Nebel ---
Hannover-Flh. 59 1001.0 -2.8 -3.4 2.4 99 0.0 0 0 S 4 5 Nebel ---
Magdeburg 76 1001.0 0.8 -0.9 1.5 88 0.0 0 0 W 6 12 --- ---
Potsdam 81 1000.5 0.0 -0.3 1.3 98 0.0 0 0 W 12 21 Dunst oder flacher Nebel ---
Berlin-Tegel 37 1000.3 0.5 0.0 1.0 95 0.0 0 0 W 11 18 Dunst oder flacher Nebel ---
Berlin-Tempelhof 48 1000.4 1.0 0.5 1.6 91 0.0 0 --- W 9 17 --- ---
Berlin-Dahlem 51 1000.4 0.6 0.2 1.6 --- ---- 0 0 W 11 --- leichter Regen ---
Lindenberg 91 1000.6 0.3 0.1 0.7 92 0.0 0 1 NW 9 22 --- ---
Düsseldorf-Flh. 45 1000.1 0.4 0.1 1.4 89 0.0 0 4 NO 5 11 leichter Schneefall ---
Essen 150 1000.3 -0.3 -1.1 0.7 91 0.0 0 9 NO 7 10 --- ---
Kahler Asten 839 ------ -5.0 -5.6 -3.9 94 0.2 0 39 S 17 21 leichter Schneefall ---
Bad Lippspringe 157 1001.0 -0.5 -1.6 0.8 85 0.0 0 0 O 4 10 --- ---
Fritzlar 174 1001.5 -2.3 -3.0 0.8 96 ---- 0 0 W 7 --- leichter Schneefall ---
Brocken 1142 ------ -7.2 -7.2 -4.9 94 ---- --- --- W 15 21 Nebel ---
Leipzig-Flh. 142 1001.5 -1.7 -2.6 0.6 94 0.0 0 2 SW 8 13 Schneefall ---
Dresden-Flh. 227 1001.4 -0.8 -1.0 0.4 90 0.0 1 12 W 10 17 Schneefall ---
Cottbus 69 1000.7 0.9 0.2 1.1 94 0.0 0 0 W 7 14 --- ---
Görlitz 238 1001.2 -0.1 -0.2 0.2 93 0.0 1 4 W 5 19 Niederschlag ---
Aachen 231 1000.0 0.0 -1.7 0.1 96 0.0 4 12 W 10 13 Dunst oder flacher Nebel ---
Nürburg 485 999.7 -1.8 -2.1 -1.5 96 0.1 2 5 S 7 10 Schneegriesel ---
Köln/Bonn-Flh. 92 999.8 -0.2 -0.7 0.6 97 0.7 1 7 SO 11 18 leichter Schneefall ---
Gießen/Wettenberg 203 1000.9 -1.2 -1.8 0.4 94 0.0 0 1 NO 5 7 leichter Schneefall ---
Wasserkuppe 921 ------ -6.1 -7.7 -4.1 91 0.0 0 50 S 18 25 leichter Schneefall ---
Meiningen 450 1002.1 -3.2 -3.8 -0.3 98 0.0 0 4 SO 8 11 Schneegriesel ---
Erfurt 316 1001.8 -3.4 -3.6 0.8 87 0.0 0 0 S 9 12 bewölkt ---
Gera 311 1002.2 -4.6 -5.4 0.4 93 0.0 1 5 S 10 13 --- ---
Fichtelberg 1213 ------ -8.9 -8.9 -5.5 93 0.0 3 76 NW 11 14 --- ---
Trier 265 1000.2 -0.1 -0.4 1.1 98 0.0 3 4 SW 4 5 Schneegriesel ---
Hahn-Flh. 497 1000.1 -1.9 -2.5 -1.7 97 0.1 0 1 SO 9 14 leichter Schneefall ---
Frankfurt/M-Flh. 112 1000.8 -0.4 -0.9 1.8 96 0.1 1 2 NO 5 9 leichter Schneefall ---
OF-Wetterpark 119 1000.7 -0.4 -0.5 1.7 93 0.0 0 0 SO 2 10 leichter Schneefall ---
Würzburg 268 1001.7 -1.5 -2.3 0.6 83 0.0 0 1 SO 6 10 --- ---
Bamberg 239 1002.8 -7.2 -7.3 1.2 94 0.0 0 2 SO 3 5 --- ---
Hof 567 1002.7 -5.9 -5.9 -0.5 94 0.0 0 9 SO 6 9 Dunst oder flacher Nebel ---
Weiden 438 1003.2 -5.4 -5.4 -0.4 95 0.0 0 12 NO 3 11 Dunst oder flacher Nebel ---
Saarbrücken-Flh. 320 1000.3 0.1 -0.6 0.7 98 0.4 2 4 SW 13 18 leichter Schneefall ---
Karlsruhe-Rheinst. 116 1000.8 0.4 -1.4 0.8 97 0.0 2 1 SW 5 13 leichter Schneefall ---
Mannheim 96 1000.7 0.4 0.1 1.6 90 0.0 0 0 S 10 19 leichter Schneefall ---
Stuttgart-Flh. 371 1001.1 -1.7 -2.4 0.4 98 0.6 2 0 NO 3 4 leichter Schneefall ---
Öhringen 276 1001.1 -1.2 -1.8 1.0 95 0.2 0 1 SO 4 5 leichter Schneefall ---
Nürnberg-Flh. 314 1002.5 -4.0 -6.5 0.7 90 0.0 0 3 O 8 13 bedeckt ---
Regensburg 366 1003.7 -6.6 -6.9 -0.3 94 0.0 0 8 - 0 6 --- ---
Straubing 351 1003.4 -7.5 -9.1 0.5 96 0.0 0 4 SO 5 12 wolkenlos ---
Großer Arber 1436 ------ -9.0 -9.5 -7.0 96 0.0 0 --- SW 16 24 --- ---
Lahr 155 1001.2 0.7 0.4 3.3 97 0.7 2 0 S 9 18 Schneefall ---
Freudenstadt 797 ------ -2.5 -5.0 -2.5 94 0.1 3 31 W 14 33 leichter Schneefall ---
Stötten 734 1002.0 -4.3 -5.7 -2.9 93 1.3 3 --- S 7 16 Schneefall ---
Augsburg 462 1002.7 -4.1 -5.5 0.1 88 0.1 0 0 SO 6 10 leichter Schneefall ---
München-Flh. 444 1003.6 -7.5 -7.8 0.5 92 0.0 0 0 O 6 8 bewölkt ---
Fürstenzell 476 1002.9 -3.4 -4.5 -0.4 83 0.0 0 15 SO 2 4 --- ---
Feldberg/Schw. 1486 ------ -6.7 -8.8 -6.4 93 0.4 3 151 W 39 57 kräftiger Schneefall Windböen
Konstanz 443 1001.6 0.8 -3.2 0.8 84 0.0 0 6 SW 16 26 Schneegriesel ---
Kempten 705 1002.4 -3.6 -9.3 -3.6 90 0.1 0 25 S 10 17 leichter Schneefall ---
Oberstdorf 806 ------ -4.8 -12.0 -4.6 83 0.0 0 43 SO 8 13 leichter Schneefall ---
Zugspitze 2960 ------ -16.6 -19.5 -16.2 86 ---- --- 240 W 24 77 leichter Schneefall Sturmböen
Hohenpeißenberg 977 ------ -4.2 -5.9 -1.7 70 0.0 0 15 S 13 40 Schneegriesel ---

                                                                                                               Tabelle: 19 UHR  

STATIONHÖHELUFTD.TEMP.T-MinT-MaxU%RR1RR12SSSDDFFFXWetter+WolkenBöen
UFS TW Ems 0 ------ --- --- --- --- ---- --- --- -- --- --- --- ---
UFS Deutsche Bucht 26 ------ --- --- --- --- ---- --- --- -- --- --- --- ---
Helgoland 4 1004.4 4.2 2.5 5.0 79 0.0 0 0 SW 23 37 --- ---
List/Sylt 26 1004.1 1.4 0.3 5.2 88 0.0 2 0 -- --- ---   ---
Schleswig 43 1004.7 0.6 -0.9 4.6 95 0.0 0 0 SW 10 16 --- ---
Leuchtturm Kiel 5 1004.4 2.2 0.2 3.7 85 ---- --- --- SW 31 37 --- ---
Kiel 27 1004.6 1.4 -0.1 4.1 90 0.0 0 0 SW 11 19 --- ---
Fehmarn 3 1004.2 3.3 1.6 3.6 86 0.0 0 0 W 29 36 --- ---
Arkona 42 1003.3 0.8 0.3 3.7 94 0.0 0 0 W 23 29 --- ---
Norderney 11 1004.8 3.2 1.9 4.6 81 0.0 0 0 S 15 28 --- ---
Leuchtt. Alte Weser 32 1004.8 3.3 1.6 4.3 79 ---- --- --- SW 29 --- --- ---
Cuxhaven 5 1005.3 1.8 0.4 5.0 88 0.0 1 0 SW 12 21 --- ---
Hamburg-Flh 11 1005.9 -0.5 -0.5 2.2 96 0.0 0 0 SW 7 14 gering bewölkt ---
Schwerin 59 1005.6 0.8 0.5 1.9 91 0.0 0 0 SW 13 24 --- ---
Rostock 4 1004.4 1.6 0.9 2.7 86 0.0 0 0 SW 15 26 --- ---
Greifswald 2 1004.3 1.6 0.6 2.3 91 0.0 0 0 W 12 21 --- ---
Emden 0 1005.5 2.8 -3.0 5.0 80 0.0 0 0 S 15 22 --- ---
Bremen-Flh. 5 1006.5 1.4 -4.7 4.1 84 0.0 0 0 SW 10 15 stark bewölkt ---
Lüchow 17 1006.5 0.7 0.1 2.0 93 0.1 0 0 SW 7 14 Schneefall ---
Marnitz 81 1005.8 0.3 0.2 1.3 93 0.0 0 0 W 8 18 --- ---
Waren 70 1005.3 0.3 0.3 1.6 91 0.0 1 0 W 11 27 --- ---
Neuruppin 38 1006.0 0.3 0.1 0.9 93 0.0 0 0 W 6 15 --- ---
Angermünde 56 1005.4 0.9 0.2 1.5 95 0.0 0 0 W 13 21 --- ---
Münster/Osnabr.-Flh. 48 1008.2 1.8 -2.5 3.7 76 0.0 0 0 SW 11 17 bewölkt ---
Hannover-Flh. 59 1007.4 0.5 -3.9 3.2 83 0.0 0 0 SW 9 15 bewölkt ---
Magdeburg 76 1007.0 1.4 -0.2 4.6 79 0.0 0 0 W 8 12 --- ---
Potsdam 81 1006.4 -0.2 -0.2 2.7 94 0.0 0 0 W 11 18 Dunst oder flacher Nebel ---
Berlin-Tegel 37 1006.2 1.0 0.4 1.8 87 0.0 0 0 W 10 17 stark bewölkt ---
Berlin-Tempelhof 48 1006.2 1.5 1.0 2.3 84 0.0 0 --- W 18 29 --- ---
Berlin-Dahlem 51 1006.2 1.1 0.6 2.3 --- ---- 0 0 W 11 --- stark bewölkt ---
Lindenberg 91 1006.1 1.0 -0.6 2.1 93 0.0 0 0 W 6 13 --- ---
Düsseldorf-Flh. 45 1009.9 0.8 -0.7 4.0 89 0.0 0 3 SW 15 20 stark bewölkt ---
Essen 150 1009.8 0.6 -0.6 2.9 84 0.0 0 8 SW 11 15 --- ---
Kahler Asten 839 ------ -4.7 -5.2 -2.9 94 0.0 0 38 W 23 36 --- ---
Bad Lippspringe 157 1008.9 -1.1 -1.7 3.1 91 0.0 0 0 S 6 10 --- ---
Fritzlar 174 1009.3 -2.0 -2.3 1.5 94 ---- 1 0 W 4 --- gering bewölkt ---
Brocken 1142 ------ -7.5 -7.6 -3.7 93 ---- --- --- W 36 41 Nebel ---
Leipzig-Flh. 142 1007.7 -2.0 -2.6 0.8 91 0.0 0 1 SW 11 15 bewölkt ---
Dresden-Flh. 227 1007.4 -1.9 -1.9 1.5 80 0.0 0 11 SW 9 15 stark bewölkt ---
Cottbus 69 1006.2 0.7 0.2 2.8 92 0.0 0 0 SW 9 12 Niederschlag ---
Görlitz 238 1006.8 -0.4 -1.1 1.2 87 0.0 0 3 W 6 12 Schneegriesel ---
Aachen 231 1011.2 -0.9 -2.5 0.6 90 0.0 1 9 SW 17 25 --- ---
Nürburg 485 1011.6 -3.0 -3.1 -0.3 91 0.0 0 3 W 9 15 --- ---
Köln/Bonn-Flh. 92 1010.6 -1.0 -1.1 1.8 95 0.0 0 7 W 5 13 gering bewölkt ---
Gießen/Wettenberg 203 1009.8 -0.2 -1.3 1.5 93 0.0 0 0 W 6 9 --- ---
Wasserkuppe 921 ------ -5.0 -6.0 -2.1 95 0.0 0 49 NW 15 25 gefrierender Nebel ---
Meiningen 450 1009.3 -2.8 -3.3 0.5 94 0.0 0 4 W 7 9 Glatteisbildung ---
Erfurt 316 1008.6 -1.3 -3.4 1.0 89 0.0 0 0 W 14 17 gering bewölkt ---
Gera 311 1008.1 -1.4 -6.5 0.3 84 0.0 0 4 W 8 12 --- ---
Fichtelberg 1213 ------ -7.5 -9.1 -6.1 94 0.0 0 74 NW 23 31 gefrierender Nebel ---
Trier 265 1012.0 -0.1 -0.2 3.0 80 0.0 1 0 NW 6 19 wolkenlos ---
Hahn-Flh. 497 1011.2 -2.1 -2.1 0.4 90 0.0 1 1 NW 10 22 --- ---
Frankfurt/M-Flh. 112 1009.9 1.7 -0.6 2.0 88 0.0 1 0 W 6 12 stark bewölkt ---
OF-Wetterpark 119 1009.7 0.2 -0.7 1.5 95 0.0 1 0 NO 3 6 Dunst oder flacher Nebel ---
Würzburg 268 1009.7 -0.4 -1.8 1.0 95 0.0 0 1 NW 5 6 Glatteisbildung ---
Bamberg 239 1009.3 -1.4 -7.3 1.1 94 0.0 0 1 SO 3 4 Schneegriesel ---
Hof 567 1008.5 -2.8 -7.3 -1.1 84 0.0 0 8 W 7 11 --- ---
Weiden 438 1008.8 -2.0 -6.2 -1.3 93 0.0 1 13 SW 3 7 Schneefall ---
Saarbrücken-Flh. 320 1011.3 0.8 0.1 1.4 90 0.0 2 3 W 14 18 Schneefall ---
Karlsruhe-Rheinst. 116 1010.6 0.9 0.3 2.8 96 0.0 2 0 SW 11 19 Regen ---
Mannheim 96 1010.1 0.7 0.2 3.0 96 0.3 3 0 NW 6 16 Schneefall ---
Stuttgart-Flh. 371 1010.0 0.9 -2.9 1.5 88 0.0 3 2 W 9 15 Schneeschauer ---
Öhringen 276 1009.6 0.4 -1.2 0.6 97 0.0 2 0 W 8 16 Dunst oder flacher Nebel ---
Nürnberg-Flh. 314 1009.0 -1.2 -4.1 0.4 94 0.0 0 4 N 2 5 leichter Schneefall ---
Regensburg 366 1009.0 -2.6 -6.7 0.0 95 0.0 1 8 W 2 9 --- ---
Straubing 351 1009.3 -4.5 -10.3 -0.3 95 0.0 0 4 W 5 9 --- ---
Großer Arber 1436 ------ -8.1 -9.8 -5.2 95 0.0 0 107 NW 16 22 leichter Schneefall ---
Lahr 155 1011.7 1.1 0.5 3.5 95 0.0 2 0 SW 4 12 Regen ---
Freudenstadt 797 ------ -2.6 -2.7 -1.7 93 0.5 12 47 W 19 34 leichter Schneefall ---
Stötten 734 1010.4 -2.5 -4.3 -1.8 97 0.0 8 --- W 21 33 gefrierender Nebel ---
Augsburg 462 1009.2 -0.5 -4.2 1.1 97 0.8 5 8 W 10 19 leichter Schneefall ---
München-Flh. 444 1009.1 -1.1 -7.5 -0.4 98 0.7 1 1 W 2 5 leichter Schneefall ---
Fürstenzell 476 1008.6 -2.8 -4.9 0.2 89 0.0 0 15 W 12 21 --- ---
Feldberg/Schw. 1486 ------ -7.1 -7.7 -6.7 94 0.0 1 149 NW 26 48 leichter Schneefall ---
Konstanz 443 1011.1 0.6 0.4 2.3 80 0.0 0 5 W 14 27 Schneefall ---
Kempten 705 1010.6 -1.6 -3.6 0.2 87 0.0 4 33 SW 8 27 leichter Schneefall ---
Oberstdorf 806 ------ -2.3 -5.0 -0.1 81 0.2 6 54 NO 9 20 leichter Schneefall ---
Zugspitze 2960 ------ -18.2 -18.4 -16.6 84 ---- --- --- NW 21 40 Schneefall ---
Hohenpeißenberg 977 ------ -4.1 -4.4 -2.8 94 0.0 2 20 SW 27 48 leichter Schneefall ---

   

  • Wetterzustand
  • Windrichtung und -geschwindigkeit
  • Luftdruck
  • relative Luftfeuchtigkeit
  • Sichtweite
  • Gesamtbedeckungsgrad
  • Niederschlag
  • Sonnenscheindauer

 Höhe:     m über NN
Luftd.:   auf Meereshöhe reduzierter Luftdruck in hPa
TEMP.:   Lufttemperatur in Grad Celsius
T-MIN:   Minimumtemperatur der Luft in 2m Höhe in Grad Celsius, von 18 UTC Vortag bis 06 UTC heute
T-MAX:  Maximumtemperatur der Luft in 2m Höhe in Grad Celsius, von 18 UTC Vortag bis 06 UTC heute
RR1:     Niederschlagsmenge, einstündig, mm ist gleich Liter pro
RR12:   Niederschlagsmenge, 12 stündig, 18 UTC Vortag bis 06 UTC heute in mm ist gleich Liter pro
SSS:     Gesamtschneehöhe
DD:      Windrichtung
FF:       Windgeschwindigkeit letztes 10-Minutenmittel in km/h
FX:       höchste Windspitze während der letzten Stunde in km/h
---:      Wert nicht vorhanden

 

2009-2021

Unwetterwarnungen

 

  Radarbild           

aktueller Radarfilm Deutschland

  Europa-Meteoalarm